Hamburg, Arkansas
Current Conditions -  °F | °C
As of 6:53 PM on Sunday 23 Nov 2014 (Local Time) from KLLQ Reporting Station
Clear Clear  
Wind Chill: 17°   Ceiling: Unl
Heat Index: 17°   Visibility: 10mi
Dew Point: 14°   Wind: 9mph
Humidity: 86%   Direction: 200°SSW
Pressure: 29.47"   Gusts: NA
Location:  33.23°N, 91.8°W
Report Text: KLLQ 240053Z AUTO 20008KT 10SM CLR 17/14 A2947 RMK AO2 SLP976 T01670144
Loading
Personal Weather Stations






























Interactive Weather Map New forecast layout! Learn more

10-Day Weather Forecast

Advertisements
Track Severe Weather on mobile